Time;durP1;ratioP1;P1;durP2;ratioP2;P2;SDS_P1;SDS_P2;PMS_P1;PMS_P2;Temp;Humidity;BMP_temperature;BMP_pressure;BME280_temperature;BME280_humidity;BME280_pressure;Samples;Min_cycle;Max_cycle;Signal;HPM_P1;HPM_P2
2022/10/24 00:01:50;;;;;;;51.83;28.13;;;;;;;;;;5046126;28;20044;-81
2022/10/24 00:04:15;;;;;;;57.45;30.23;;;;;;;;;;5063295;28;20033;-81
2022/10/24 00:06:42;;;;;;;58.58;29.98;;;;;;;;;;5064335;28;20032;-83
2022/10/24 00:09:08;;;;;;;60.85;31.00;;;;;;;;;;5082694;28;20082;-81
2022/10/24 00:11:34;;;;;;;59.55;29.38;;;;;;;;;;5062067;28;20032;-81
2022/10/24 00:14:00;;;;;;;57.78;30.77;;;;;;;;;;5076171;28;20028;-81
2022/10/24 00:16:26;;;;;;;54.28;28.58;;;;;;;;;;5081875;28;20050;-80
2022/10/24 00:18:53;;;;;;;54.38;28.20;;;;;;;;;;5063448;28;20033;-81
2022/10/24 00:21:19;;;;;;;62.88;28.33;;;;;;;;;;5053337;28;20485;-81
2022/10/24 00:23:45;;;;;;;53.30;28.15;;;;;;;;;;5044088;28;20053;-81
2022/10/24 00:26:12;;;;;;;56.83;28.83;;;;;;;;;;5060523;28;20017;-81
2022/10/24 00:28:38;;;;;;;54.70;27.27;;;;;;;;;;5080523;28;20023;-81
2022/10/24 00:31:05;;;;;;;57.97;27.65;;;;;;;;;;5069220;28;20039;-81
2022/10/24 00:33:31;;;;;;;52.63;27.27;;;;;;;;;;5067878;28;20028;-81
2022/10/24 00:35:57;;;;;;;56.38;26.33;;;;;;;;;;5052014;28;20043;-81
2022/10/24 00:38:24;;;;;;;51.55;26.10;;;;;;;;;;5075394;28;20028;-81
2022/10/24 00:40:50;;;;;;;47.67;26.30;;;;;;;;;;5052593;28;20033;-81
2022/10/24 00:43:22;;;;;;;48.50;25.50;;;;;;;;;;5064640;28;20052;-81
2022/10/24 00:45:55;;;;;;;49.03;25.73;;;;;;;;;;5054617;28;20028;-81
2022/10/24 00:48:30;;;;;;;51.40;26.05;;;;;;;;;;5061309;28;20025;-81
2022/10/24 00:51:16;;;;;;;54.20;27.83;;;;;;;;;;5054411;28;20033;-81
2022/10/24 00:53:44;;;;;;;54.65;25.85;;;;;;;;;;5060697;28;20037;-81
2022/10/24 00:56:11;;;;;;;44.25;24.15;;;;;;;;;;5055509;28;20112;-81
2022/10/24 00:58:37;;;;;;;46.90;26.75;;;;;;;;;;5061126;28;20033;-81
2022/10/24 01:01:04;;;;;;;53.50;26.48;;;;;;;;;;5058321;28;20032;-81
2022/10/24 01:03:31;;;;;;;59.00;25.60;;;;;;;;;;5073360;28;20032;-81
2022/10/24 01:06:15;;;;;;;50.22;26.45;;;;;;;;;;5055011;28;20060;-81
2022/10/24 01:08:41;;;;;;;55.53;26.58;;;;;;;;;;5047763;28;20041;-80
2022/10/24 01:11:17;;;;;;;51.80;25.58;;;;;;;;;;5064102;28;20021;-81
2022/10/24 01:13:46;;;;;;;46.08;25.23;;;;;;;;;;5065108;28;20029;-81
2022/10/24 01:16:12;;;;;;;58.70;27.40;;;;;;;;;;5050709;28;20026;-81
2022/10/24 01:18:44;;;;;;;53.75;26.50;;;;;;;;;;5058544;28;20082;-80
2022/10/24 01:21:25;;;;;;;50.33;25.17;;;;;;;;;;5064440;28;20029;-81
2022/10/24 01:23:54;;;;;;;52.15;27.35;;;;;;;;;;5059496;28;20036;-81
2022/10/24 01:26:35;;;;;;;51.92;27.95;;;;;;;;;;5059668;28;20025;-81
2022/10/24 01:29:01;;;;;;;51.25;27.38;;;;;;;;;;5060917;28;20017;-81
2022/10/24 01:31:31;;;;;;;48.90;26.98;;;;;;;;;;5060193;28;20483;-81
2022/10/24 01:34:06;;;;;;;47.35;26.35;;;;;;;;;;5059552;28;20032;-81
2022/10/24 01:36:40;;;;;;;49.35;27.42;;;;;;;;;;5058877;28;20029;-80
2022/10/24 01:39:10;;;;;;;46.90;26.63;;;;;;;;;;5039689;28;20079;-81
2022/10/24 01:41:38;;;;;;;43.38;25.10;;;;;;;;;;5054467;28;20029;-81
2022/10/24 01:44:06;;;;;;;43.53;26.60;;;;;;;;;;5066706;28;20025;-81
2022/10/24 01:46:35;;;;;;;47.88;26.38;;;;;;;;;;5058464;28;20032;-80
2022/10/24 01:49:15;;;;;;;44.75;26.50;;;;;;;;;;5070127;28;20029;-81
2022/10/24 01:51:41;;;;;;;46.22;24.35;;;;;;;;;;5056094;28;20021;-79
2022/10/24 01:54:08;;;;;;;44.10;25.23;;;;;;;;;;5054064;28;20036;-81
2022/10/24 01:56:34;;;;;;;41.72;23.88;;;;;;;;;;5051424;28;20033;-80
2022/10/24 01:59:07;;;;;;;46.42;25.42;;;;;;;;;;5059946;28;20060;-80
2022/10/24 02:01:34;;;;;;;51.05;25.92;;;;;;;;;;5064819;28;20050;-81
2022/10/24 02:04:03;;;;;;;42.08;23.23;;;;;;;;;;5058134;28;20071;-81
2022/10/24 02:06:31;;;;;;;40.95;23.63;;;;;;;;;;5057968;28;20029;-79
2022/10/24 02:09:00;;;;;;;41.35;23.75;;;;;;;;;;5059492;28;20074;-81
2022/10/24 02:11:26;;;;;;;44.35;23.13;;;;;;;;;;5064967;28;20032;-79
2022/10/24 02:13:52;;;;;;;41.53;21.65;;;;;;;;;;5071763;28;20021;-81
2022/10/24 02:16:19;;;;;;;40.20;22.20;;;;;;;;;;5056449;28;20017;-81
2022/10/24 02:18:50;;;;;;;41.25;21.02;;;;;;;;;;5069593;28;20147;-81
2022/10/24 02:21:16;;;;;;;37.45;17.88;;;;;;;;;;5063374;28;20017;-80
2022/10/24 02:23:48;;;;;;;36.45;17.58;;;;;;;;;;5084411;28;20051;-81
2022/10/24 02:26:21;;;;;;;38.10;17.17;;;;;;;;;;5073902;28;20125;-81
2022/10/24 02:28:49;;;;;;;39.67;16.42;;;;;;;;;;5046847;28;20029;-81
2022/10/24 02:31:17;;;;;;;37.83;17.15;;;;;;;;;;5056064;28;20512;-80
2022/10/24 02:33:44;;;;;;;33.85;16.38;;;;;;;;;;5065367;28;20029;-80
2022/10/24 02:36:13;;;;;;;36.40;18.65;;;;;;;;;;5062990;28;20437;-82
2022/10/24 02:38:40;;;;;;;31.45;17.00;;;;;;;;;;5067230;28;20025;-79
2022/10/24 02:41:11;;;;;;;29.95;15.25;;;;;;;;;;5065245;28;20053;-80
2022/10/24 02:43:38;;;;;;;33.72;17.05;;;;;;;;;;5063529;28;20029;-81
2022/10/24 02:46:05;;;;;;;37.25;17.10;;;;;;;;;;5049728;28;20025;-81
2022/10/24 02:48:34;;;;;;;37.47;17.58;;;;;;;;;;5063570;28;20029;-81
2022/10/24 02:51:00;;;;;;;35.03;18.13;;;;;;;;;;5078936;28;20021;-81
2022/10/24 02:53:26;;;;;;;34.45;18.27;;;;;;;;;;5072954;28;20017;-81
2022/10/24 02:55:52;;;;;;;30.80;17.80;;;;;;;;;;5063855;28;20029;-80
2022/10/24 02:58:18;;;;;;;32.53;16.98;;;;;;;;;;5064524;28;20051;-81
2022/10/24 03:00:44;;;;;;;29.73;15.57;;;;;;;;;;5069165;28;20033;-80
2022/10/24 03:03:10;;;;;;;31.88;16.15;;;;;;;;;;5062890;28;20037;-81
2022/10/24 03:05:36;;;;;;;33.13;16.45;;;;;;;;;;5045339;28;20025;-80
2022/10/24 03:08:02;;;;;;;35.97;18.73;;;;;;;;;;5064274;28;20362;-81
2022/10/24 03:10:28;;;;;;;30.98;17.70;;;;;;;;;;5058967;28;20044;-81
2022/10/24 03:12:54;;;;;;;37.80;19.60;;;;;;;;;;5049010;28;20508;-80
2022/10/24 03:15:20;;;;;;;37.70;19.20;;;;;;;;;;5064822;28;20112;-79
2022/10/24 03:17:48;;;;;;;38.72;20.52;;;;;;;;;;5050775;28;20159;-80
2022/10/24 03:20:14;;;;;;;34.97;18.48;;;;;;;;;;5041668;28;20109;-82
2022/10/24 03:22:40;;;;;;;39.38;19.40;;;;;;;;;;5041594;28;20033;-79
2022/10/24 03:25:06;;;;;;;42.28;19.23;;;;;;;;;;5039609;28;20037;-79
2022/10/24 03:27:33;;;;;;;39.38;17.85;;;;;;;;;;5042888;28;20063;-82
2022/10/24 03:30:00;;;;;;;37.63;17.60;;;;;;;;;;5058293;28;20024;-82
2022/10/24 03:32:27;;;;;;;29.02;15.05;;;;;;;;;;5041337;28;20469;-80
2022/10/24 03:34:53;;;;;;;33.47;16.30;;;;;;;;;;5038404;28;20053;-81
2022/10/24 03:37:19;;;;;;;30.48;14.80;;;;;;;;;;5044553;28;20470;-81
2022/10/24 03:39:45;;;;;;;29.60;15.18;;;;;;;;;;5053204;28;20033;-82
2022/10/24 03:42:11;;;;;;;27.80;14.18;;;;;;;;;;5039595;28;20029;-81
2022/10/24 03:44:37;;;;;;;27.40;14.48;;;;;;;;;;5040134;28;20029;-82
2022/10/24 03:47:03;;;;;;;26.67;13.07;;;;;;;;;;5043272;28;20025;-81
2022/10/24 03:49:29;;;;;;;22.80;13.00;;;;;;;;;;5054259;28;20349;-82
2022/10/24 03:51:55;;;;;;;25.85;12.73;;;;;;;;;;5042964;28;20025;-81
2022/10/24 03:54:21;;;;;;;28.13;13.63;;;;;;;;;;5040290;28;20036;-80
2022/10/24 03:56:48;;;;;;;28.55;13.43;;;;;;;;;;5066471;28;20033;-81
2022/10/24 03:59:14;;;;;;;25.05;13.07;;;;;;;;;;5058819;28;20025;-80
2022/10/24 04:01:40;;;;;;;22.80;12.32;;;;;;;;;;5057667;28;20024;-80
2022/10/24 04:04:06;;;;;;;20.75;12.00;;;;;;;;;;5059712;28;20404;-80
2022/10/24 04:06:32;;;;;;;22.10;11.95;;;;;;;;;;5061029;28;20028;-81
2022/10/24 04:08:58;;;;;;;22.15;12.27;;;;;;;;;;5058611;28;20050;-82
2022/10/24 04:11:25;;;;;;;23.80;12.63;;;;;;;;;;5060730;28;20024;-82
2022/10/24 04:13:51;;;;;;;22.45;11.63;;;;;;;;;;5057967;28;20035;-83
2022/10/24 04:16:17;;;;;;;23.50;12.10;;;;;;;;;;5059619;28;20045;-82
2022/10/24 04:18:43;;;;;;;26.02;13.75;;;;;;;;;;5052431;28;20028;-82
2022/10/24 04:21:09;;;;;;;23.30;11.95;;;;;;;;;;5047395;28;20029;-82
2022/10/24 04:23:40;;;;;;;22.52;10.88;;;;;;;;;;5058496;28;20112;-82
2022/10/24 04:26:09;;;;;;;24.10;11.30;;;;;;;;;;5064086;28;20028;-82
2022/10/24 04:28:35;;;;;;;22.95;11.15;;;;;;;;;;5056624;28;20025;-81
2022/10/24 04:31:01;;;;;;;23.13;11.85;;;;;;;;;;5054759;28;20028;-80
2022/10/24 04:33:27;;;;;;;21.95;11.43;;;;;;;;;;5058775;28;20051;-80
2022/10/24 04:35:53;;;;;;;19.88;11.13;;;;;;;;;;5053772;28;20477;-82
2022/10/24 04:38:19;;;;;;;20.67;12.23;;;;;;;;;;5041719;28;20079;-80
2022/10/24 04:40:47;;;;;;;24.60;12.65;;;;;;;;;;5055971;28;20032;-80
2022/10/24 04:43:13;;;;;;;21.30;12.55;;;;;;;;;;5053079;28;20151;-81
2022/10/24 04:45:39;;;;;;;22.48;12.18;;;;;;;;;;5053677;28;20033;-82
2022/10/24 04:48:05;;;;;;;23.77;12.73;;;;;;;;;;5049986;28;20024;-80
2022/10/24 04:50:31;;;;;;;21.42;10.73;;;;;;;;;;5056323;28;20028;-82
2022/10/24 04:52:57;;;;;;;24.92;12.20;;;;;;;;;;5057310;28;20021;-82
2022/10/24 04:55:24;;;;;;;21.00;11.23;;;;;;;;;;5057230;28;20029;-82
2022/10/24 04:57:50;;;;;;;20.15;11.32;;;;;;;;;;5046879;28;20043;-82
2022/10/24 05:00:16;;;;;;;19.15;11.20;;;;;;;;;;5057180;28;20040;-83
2022/10/24 05:02:42;;;;;;;20.35;11.20;;;;;;;;;;5060041;28;20029;-82
2022/10/24 05:05:08;;;;;;;22.55;11.00;;;;;;;;;;5052966;28;20029;-81
2022/10/24 05:07:35;;;;;;;21.20;12.23;;;;;;;;;;5054594;28;20030;-80
2022/10/24 05:10:01;;;;;;;23.58;12.88;;;;;;;;;;5057828;28;20029;-82
2022/10/24 05:12:27;;;;;;;24.73;12.65;;;;;;;;;;5037905;28;20029;-81
2022/10/24 05:14:53;;;;;;;24.40;12.15;;;;;;;;;;5046547;28;20029;-82
2022/10/24 05:17:19;;;;;;;23.13;12.38;;;;;;;;;;5049892;28;20036;-83
2022/10/24 05:19:45;;;;;;;20.50;11.75;;;;;;;;;;5051851;28;20040;-81
2022/10/24 05:22:11;;;;;;;22.92;12.10;;;;;;;;;;5067480;28;20076;-80
2022/10/24 05:24:37;;;;;;;23.50;11.85;;;;;;;;;;5072469;28;20036;-82
2022/10/24 05:27:03;;;;;;;21.63;11.38;;;;;;;;;;5064672;28;20021;-79
2022/10/24 05:29:29;;;;;;;21.73;12.10;;;;;;;;;;5063741;28;20013;-80
2022/10/24 05:31:55;;;;;;;21.25;12.65;;;;;;;;;;5074696;28;20025;-80
2022/10/24 05:34:21;;;;;;;22.67;11.25;;;;;;;;;;5061504;28;20044;-80
2022/10/24 05:36:48;;;;;;;21.13;12.38;;;;;;;;;;5071606;28;20010;-82
2022/10/24 05:39:14;;;;;;;23.77;12.98;;;;;;;;;;5064666;28;20025;-82
2022/10/24 05:41:40;;;;;;;20.95;11.63;;;;;;;;;;5056055;28;20022;-82
2022/10/24 05:44:06;;;;;;;23.65;12.32;;;;;;;;;;5063613;28;20085;-82
2022/10/24 05:46:32;;;;;;;23.63;12.50;;;;;;;;;;5070141;28;20035;-84
2022/10/24 05:48:58;;;;;;;21.23;12.32;;;;;;;;;;5063090;28;20039;-83
2022/10/24 05:51:24;;;;;;;22.50;12.98;;;;;;;;;;5062290;28;20029;-83
2022/10/24 05:53:50;;;;;;;22.15;12.35;;;;;;;;;;5046533;28;20444;-82
2022/10/24 05:56:16;;;;;;;20.98;11.35;;;;;;;;;;5057544;28;20025;-85
2022/10/24 05:58:42;;;;;;;23.73;13.15;;;;;;;;;;5069971;28;20028;-84
2022/10/24 06:01:08;;;;;;;21.73;12.15;;;;;;;;;;5064569;28;20029;-85
2022/10/24 06:03:34;;;;;;;20.88;11.98;;;;;;;;;;5064846;28;20036;-84
2022/10/24 06:06:03;;;;;;;21.20;12.60;;;;;;;;;;5062038;28;20056;-82
2022/10/24 06:08:29;;;;;;;23.33;12.88;;;;;;;;;;5061599;28;20017;-84
2022/10/24 06:10:55;;;;;;;23.02;12.48;;;;;;;;;;5062898;28;20051;-82
2022/10/24 06:13:21;;;;;;;22.63;12.68;;;;;;;;;;5043363;28;20029;-84
2022/10/24 06:15:47;;;;;;;21.40;11.93;;;;;;;;;;5053395;28;20396;-84
2022/10/24 06:18:13;;;;;;;24.75;13.68;;;;;;;;;;5058084;28;20029;-84
2022/10/24 06:20:39;;;;;;;21.38;11.63;;;;;;;;;;5053612;28;20030;-84
2022/10/24 06:23:05;;;;;;;21.58;11.60;;;;;;;;;;5056124;28;20365;-84
2022/10/24 06:25:31;;;;;;;21.35;13.00;;;;;;;;;;5057513;28;20507;-84
2022/10/24 06:27:57;;;;;;;22.17;12.43;;;;;;;;;;5055541;28;20365;-84
2022/10/24 06:30:23;;;;;;;22.27;12.43;;;;;;;;;;5063095;28;20448;-85
2022/10/24 06:32:49;;;;;;;23.45;12.30;;;;;;;;;;5061947;28;20102;-84
2022/10/24 06:35:15;;;;;;;21.35;11.93;;;;;;;;;;5063690;28;20028;-84
2022/10/24 06:37:42;;;;;;;21.67;12.70;;;;;;;;;;5060071;28;20029;-83
2022/10/24 06:40:08;;;;;;;21.23;11.55;;;;;;;;;;5050377;28;20316;-83
2022/10/24 06:42:34;;;;;;;24.35;12.90;;;;;;;;;;5051083;28;20044;-83
2022/10/24 06:45:00;;;;;;;25.13;13.07;;;;;;;;;;5050039;28;20396;-83
2022/10/24 06:47:26;;;;;;;20.20;11.48;;;;;;;;;;5056514;28;20033;-83
2022/10/24 06:49:52;;;;;;;26.17;12.57;;;;;;;;;;5036332;28;20026;-82
2022/10/24 06:52:18;;;;;;;20.75;12.00;;;;;;;;;;5046276;28;20035;-82
2022/10/24 06:54:44;;;;;;;20.95;11.13;;;;;;;;;;5055993;28;20021;-82
2022/10/24 06:57:10;;;;;;;21.23;11.77;;;;;;;;;;5050505;28;20041;-83
2022/10/24 06:59:36;;;;;;;19.40;11.38;;;;;;;;;;5064435;28;20055;-84
2022/10/24 07:02:02;;;;;;;21.10;12.30;;;;;;;;;;5059259;28;20049;-83
2022/10/24 07:04:28;;;;;;;15.50;10.05;;;;;;;;;;5058232;28;20476;-83
2022/10/24 07:06:54;;;;;;;17.38;11.02;;;;;;;;;;5056599;28;20325;-83
2022/10/24 07:09:20;;;;;;;18.58;9.80;;;;;;;;;;5057128;28;20025;-83
2022/10/24 07:11:46;;;;;;;17.50;9.73;;;;;;;;;;5057221;28;20017;-83
2022/10/24 07:14:12;;;;;;;14.60;9.05;;;;;;;;;;5059719;28;20429;-83
2022/10/24 07:16:38;;;;;;;16.25;9.85;;;;;;;;;;5061552;28;20029;-83
2022/10/24 07:19:05;;;;;;;17.00;9.95;;;;;;;;;;5043271;28;20120;-83
2022/10/24 07:21:32;;;;;;;19.52;11.30;;;;;;;;;;5043169;28;20030;-84
2022/10/24 07:23:59;;;;;;;26.77;14.50;;;;;;;;;;5052593;28;20067;-84
2022/10/24 07:26:26;;;;;;;36.65;18.40;;;;;;;;;;5064591;28;20017;-84
2022/10/24 07:28:54;;;;;;;23.50;13.77;;;;;;;;;;5071229;28;20024;-81
2022/10/24 07:31:22;;;;;;;19.58;9.82;;;;;;;;;;5086074;28;20027;-81
2022/10/24 07:33:48;;;;;;;17.00;10.70;;;;;;;;;;5077343;28;20040;-83
2022/10/24 07:36:18;;;;;;;17.55;10.18;;;;;;;;;;5064131;28;20067;-84
2022/10/24 07:38:44;;;;;;;20.38;12.23;;;;;;;;;;5064617;28;20031;-84
2022/10/24 07:41:10;;;;;;;16.05;9.93;;;;;;;;;;5063659;28;20036;-83
2022/10/24 07:43:36;;;;;;;15.38;10.75;;;;;;;;;;5062545;28;20032;-83
2022/10/24 07:46:09;;;;;;;17.75;10.85;;;;;;;;;;5062231;28;20029;-83
2022/10/24 07:48:36;;;;;;;21.85;11.07;;;;;;;;;;5065615;28;20068;-84
2022/10/24 07:51:06;;;;;;;16.30;10.73;;;;;;;;;;5065485;28;20023;-83
2022/10/24 07:53:32;;;;;;;19.25;11.25;;;;;;;;;;5063471;28;20048;-83
2022/10/24 07:55:59;;;;;;;19.80;11.40;;;;;;;;;;5064013;28;20088;-83
2022/10/24 07:58:25;;;;;;;18.15;11.13;;;;;;;;;;5068912;28;20074;-83
2022/10/24 08:00:51;;;;;;;13.80;9.68;;;;;;;;;;5055635;28;20044;-83
2022/10/24 08:03:18;;;;;;;15.70;10.02;;;;;;;;;;5060994;28;20087;-82
2022/10/24 08:05:43;;;;;;;17.90;10.75;;;;;;;;;;5064612;28;20049;-84
2022/10/24 08:08:09;;;;;;;15.13;10.07;;;;;;;;;;5062275;28;20025;-83
2022/10/24 08:10:35;;;;;;;15.25;10.80;;;;;;;;;;5063975;28;20587;-83
2022/10/24 08:13:01;;;;;;;16.95;10.93;;;;;;;;;;5064140;28;20077;-82
2022/10/24 08:15:27;;;;;;;17.67;11.50;;;;;;;;;;5064147;28;20033;-83
2022/10/24 08:17:54;;;;;;;17.48;10.93;;;;;;;;;;5064396;28;20076;-83
2022/10/24 08:20:20;;;;;;;26.40;13.35;;;;;;;;;;5063002;28;20029;-83
2022/10/24 08:22:46;;;;;;;18.50;11.32;;;;;;;;;;5064055;28;20021;-83
2022/10/24 08:25:13;;;;;;;18.17;11.73;;;;;;;;;;5063799;28;20045;-83
2022/10/24 08:27:39;;;;;;;20.25;11.60;;;;;;;;;;5064507;28;20098;-83
2022/10/24 08:30:06;;;;;;;18.90;11.85;;;;;;;;;;5071423;28;20581;-82
2022/10/24 08:32:32;;;;;;;18.20;10.95;;;;;;;;;;5060201;28;20021;-82
2022/10/24 08:34:58;;;;;;;18.13;11.50;;;;;;;;;;5061191;28;20036;-84
2022/10/24 08:37:24;;;;;;;16.48;10.60;;;;;;;;;;5063362;28;20060;-83
2022/10/24 08:39:54;;;;;;;20.13;12.30;;;;;;;;;;5063589;28;20611;-83
2022/10/24 08:42:20;;;;;;;16.00;10.63;;;;;;;;;;5042789;28;20029;-83
2022/10/24 08:44:46;;;;;;;18.50;11.30;;;;;;;;;;5049630;28;20032;-83
2022/10/24 08:47:24;;;;;;;16.75;11.15;;;;;;;;;;5063416;28;20043;-83
2022/10/24 08:50:13;;;;;;;19.20;11.82;;;;;;;;;;5055905;28;20064;-82
2022/10/24 08:52:53;;;;;;;18.58;12.32;;;;;;;;;;5059007;28;20104;-83
2022/10/24 08:55:20;;;;;;;19.42;12.73;;;;;;;;;;5058334;28;20058;-82
2022/10/24 08:57:51;;;;;;;20.25;13.48;;;;;;;;;;5062823;28;20049;-82
2022/10/24 09:00:21;;;;;;;22.17;14.13;;;;;;;;;;5057058;28;20025;-81
2022/10/24 09:02:54;;;;;;;29.60;16.80;;;;;;;;;;5072071;28;20119;-83
2022/10/24 09:05:25;;;;;;;22.58;14.65;;;;;;;;;;5063357;28;20031;-82
2022/10/24 09:07:54;;;;;;;25.05;13.63;;;;;;;;;;5057419;28;20036;-83
2022/10/24 09:10:23;;;;;;;17.92;12.05;;;;;;;;;;5057840;28;20100;-83
2022/10/24 09:12:49;;;;;;;19.92;11.13;;;;;;;;;;5059199;28;20010;-83
2022/10/24 09:15:27;;;;;;;20.20;12.10;;;;;;;;;;5056428;28;20028;-82
2022/10/24 09:17:54;;;;;;;20.45;12.55;;;;;;;;;;5058994;28;20037;-82
2022/10/24 09:20:22;;;;;;;18.55;12.15;;;;;;;;;;5032051;28;20273;-81
2022/10/24 09:22:48;;;;;;;21.50;12.95;;;;;;;;;;5038674;28;20107;-83
2022/10/24 09:25:16;;;;;;;17.75;12.38;;;;;;;;;;5030992;28;20598;-83
2022/10/24 09:27:42;;;;;;;20.63;12.48;;;;;;;;;;5035561;28;20033;-84
2022/10/24 09:30:15;;;;;;;20.27;13.48;;;;;;;;;;5037210;28;20017;-82
2022/10/24 09:32:42;;;;;;;19.63;12.18;;;;;;;;;;5037050;28;20082;-82
2022/10/24 09:35:12;;;;;;;20.92;13.43;;;;;;;;;;5037744;28;20520;-82
2022/10/24 09:37:44;;;;;;;20.90;12.90;;;;;;;;;;5045316;28;20032;-83
2022/10/24 09:40:19;;;;;;;17.80;12.48;;;;;;;;;;5040849;28;20488;-83
2022/10/24 09:42:48;;;;;;;23.02;13.38;;;;;;;;;;5040135;28;20068;-84
2022/10/24 09:45:19;;;;;;;21.13;13.27;;;;;;;;;;5038720;28;20415;-84
2022/10/24 09:47:45;;;;;;;27.33;14.77;;;;;;;;;;5033926;28;20478;-83
2022/10/24 09:50:19;;;;;;;20.63;13.98;;;;;;;;;;5036978;28;20021;-83
2022/10/24 09:52:48;;;;;;;23.77;14.50;;;;;;;;;;5028530;28;20022;-83
2022/10/24 09:55:17;;;;;;;20.35;12.77;;;;;;;;;;5026576;28;20029;-82
2022/10/24 09:57:43;;;;;;;21.65;14.32;;;;;;;;;;5039403;28;20033;-81
2022/10/24 10:00:28;;;;;;;20.55;13.68;;;;;;;;;;5036234;28;20030;-81
2022/10/24 10:02:58;;;;;;;22.15;15.40;;;;;;;;;;5030094;28;20030;-82
2022/10/24 10:05:24;;;;;;;23.73;15.20;;;;;;;;;;5028663;28;20477;-82
2022/10/24 10:07:50;;;;;;;23.35;14.82;;;;;;;;;;5020192;28;20085;-83
2022/10/24 10:10:25;;;;;;;23.67;14.35;;;;;;;;;;5025741;28;20017;-82
2022/10/24 10:12:55;;;;;;;20.55;13.52;;;;;;;;;;5041122;28;20022;-83
2022/10/24 10:15:28;;;;;;;23.13;14.27;;;;;;;;;;5040694;28;20018;-82
2022/10/24 10:17:56;;;;;;;21.92;13.68;;;;;;;;;;5040402;28;20088;-83
2022/10/24 10:20:28;;;;;;;20.60;13.40;;;;;;;;;;5039801;28;20025;-84
2022/10/24 10:22:54;;;;;;;23.25;13.65;;;;;;;;;;5040886;28;20030;-82
2022/10/24 10:25:28;;;;;;;20.60;13.43;;;;;;;;;;5040626;28;20032;-83
2022/10/24 10:27:54;;;;;;;23.20;13.90;;;;;;;;;;5029835;28;20030;-83
2022/10/24 10:30:21;;;;;;;23.70;14.75;;;;;;;;;;5041127;28;20061;-83
2022/10/24 10:32:50;;;;;;;22.67;14.02;;;;;;;;;;5041216;28;20033;-82
2022/10/24 10:35:21;;;;;;;23.38;14.55;;;;;;;;;;5039324;28;20030;-82
2022/10/24 10:38:07;;;;;;;20.95;14.30;;;;;;;;;;5039010;28;20374;-83
2022/10/24 10:40:44;;;;;;;21.98;14.10;;;;;;;;;;5039289;28;20017;-81
2022/10/24 10:43:13;;;;;;;25.63;14.85;;;;;;;;;;5042728;28;20028;-83
2022/10/24 10:45:46;;;;;;;25.88;14.57;;;;;;;;;;5044904;28;20044;-84
2022/10/24 10:48:16;;;;;;;23.63;15.00;;;;;;;;;;5026413;28;20034;-82
2022/10/24 10:50:54;;;;;;;24.52;14.98;;;;;;;;;;5029440;28;20022;-83
2022/10/24 10:53:38;;;;;;;25.60;14.90;;;;;;;;;;5043029;28;20025;-82
2022/10/24 10:56:16;;;;;;;24.40;14.63;;;;;;;;;;5042198;28;20035;-83
2022/10/24 10:59:04;;;;;;;22.98;14.77;;;;;;;;;;5043558;28;20021;-83
2022/10/24 11:01:47;;;;;;;24.45;14.13;;;;;;;;;;5039670;28;20025;-83
2022/10/24 11:04:19;;;;;;;22.48;14.80;;;;;;;;;;5027228;28;20117;-83
2022/10/24 11:06:45;;;;;;;;;;;;;;;;;;5039517;28;20043;-82
2022/10/24 11:09:14;;;;;;;21.45;13.80;;;;;;;;;;5033497;28;20174;-82
2022/10/24 11:11:42;;;;;;;26.00;14.50;;;;;;;;;;5038691;28;20017;-82
2022/10/24 11:14:08;;;;;;;22.42;13.70;;;;;;;;;;5028359;28;20022;-83
2022/10/24 11:16:35;;;;;;;24.42;14.05;;;;;;;;;;5042235;28;20029;-82
2022/10/24 11:19:03;;;;;;;20.70;13.25;;;;;;;;;;5044341;28;20107;-83
2022/10/24 11:21:31;;;;;;;20.75;13.40;;;;;;;;;;5037117;28;20026;-83
2022/10/24 11:24:03;;;;;;;21.08;13.68;;;;;;;;;;5021314;28;20122;-82
2022/10/24 11:26:40;;;;;;;23.58;13.95;;;;;;;;;;5037745;28;20124;-83
2022/10/24 11:29:06;;;;;;;23.40;13.45;;;;;;;;;;5021979;28;20053;-81
2022/10/24 11:31:33;;;;;;;19.10;12.88;;;;;;;;;;5037261;28;20029;-82
2022/10/24 11:34:11;;;;;;;24.77;14.30;;;;;;;;;;5023875;28;20026;-83
2022/10/24 11:36:42;;;;;;;22.75;13.20;;;;;;;;;;5028938;28;20026;-81
2022/10/24 11:39:27;;;;;;;21.98;13.25;;;;;;;;;;5042932;28;20116;-83
2022/10/24 11:41:56;;;;;;;22.52;13.07;;;;;;;;;;5044028;28;20029;-83
2022/10/24 11:44:30;;;;;;;20.80;13.32;;;;;;;;;;5044549;28;20029;-83
2022/10/24 11:47:14;;;;;;;20.52;13.25;;;;;;;;;;5043536;28;20052;-84
2022/10/24 11:49:43;;;;;;;18.08;12.50;;;;;;;;;;5025063;28;20057;-83
2022/10/24 11:52:21;;;;;;;19.17;12.82;;;;;;;;;;5040055;28;20075;-83
2022/10/24 11:55:20;;;;;;;22.45;12.77;;;;;;;;;;5023139;28;20022;-81
2022/10/24 11:57:50;;;;;;;20.60;13.10;;;;;;;;;;4978613;28;20118;-83
2022/10/24 12:00:19;;;;;;;21.20;13.30;;;;;;;;;;4979511;28;20046;-82
2022/10/24 12:02:48;;;;;;;19.92;13.48;;;;;;;;;;4977316;28;20086;-83
2022/10/24 12:05:14;;;;;;;18.35;12.85;;;;;;;;;;4963977;28;20038;-83
2022/10/24 12:07:58;;;;;;;22.50;13.00;;;;;;;;;;4963507;28;20266;-83
2022/10/24 12:10:24;;;;;;;18.85;12.55;;;;;;;;;;4975575;28;20035;-82
2022/10/24 12:13:09;;;;;;;20.00;12.85;;;;;;;;;;4961726;28;20035;-81
2022/10/24 12:15:44;;;;;;;19.40;12.48;;;;;;;;;;4962780;28;20094;-83
2022/10/24 12:18:25;;;;;;;18.23;11.25;;;;;;;;;;4962501;28;20031;-82
2022/10/24 12:20:55;;;;;;;16.27;11.82;;;;;;;;;;4972065;28;20055;-84
2022/10/24 12:23:22;;;;;;;17.23;11.57;;;;;;;;;;4981139;28;20043;-82
2022/10/24 12:26:00;;;;;;;19.33;11.73;;;;;;;;;;4981999;28;20038;-83
2022/10/24 12:28:27;;;;;;;18.55;11.27;;;;;;;;;;4967457;28;20177;-82
2022/10/24 12:31:10;;;;;;;16.83;11.05;;;;;;;;;;4989364;28;20058;-82
2022/10/24 12:33:36;;;;;;;;;;;;;;;;;;5014317;28;20044;-84
2022/10/24 12:36:02;;;;;;;19.75;11.25;;;;;;;;;;5051860;28;19913;-84
2022/10/24 12:38:28;;;;;;;17.23;10.88;;;;;;;;;;5027213;28;20034;-84
2022/10/24 12:40:58;;;;;;;18.52;11.38;;;;;;;;;;5039306;28;20104;-83
2022/10/24 12:43:29;;;;;;;18.35;12.00;;;;;;;;;;5061580;28;20021;-82
2022/10/24 12:45:55;;;;;;;18.80;11.55;;;;;;;;;;5023250;28;20029;-82
2022/10/24 12:48:28;;;;;;;21.77;13.68;;;;;;;;;;5026635;28;20033;-83
2022/10/24 12:50:59;;;;;;;21.95;13.35;;;;;;;;;;5041295;28;20303;-82
2022/10/24 12:53:33;;;;;;;22.58;13.35;;;;;;;;;;5041933;28;20021;-82
2022/10/24 12:55:59;;;;;;;26.17;15.60;;;;;;;;;;5041343;28;20030;-83
2022/10/24 12:58:30;;;;;;;23.65;15.88;;;;;;;;;;5039115;28;20029;-82
2022/10/24 13:01:04;;;;;;;26.23;15.20;;;;;;;;;;5036127;28;20026;-81
2022/10/24 13:03:49;;;;;;;25.92;15.23;;;;;;;;;;5020819;28;20076;-80
2022/10/24 13:06:24;;;;;;;24.48;15.70;;;;;;;;;;5017861;28;20026;-82
2022/10/24 13:09:16;;;;;;;26.90;16.20;;;;;;;;;;5025921;28;20089;-79
2022/10/24 13:11:51;;;;;;;27.48;16.98;;;;;;;;;;5039205;28;20041;-82
2022/10/24 13:14:20;;;;;;;28.08;17.23;;;;;;;;;;5040496;28;20025;-82
2022/10/24 13:16:57;;;;;;;27.45;16.25;;;;;;;;;;5039679;28;20055;-82
2022/10/24 13:19:24;;;;;;;27.55;15.73;;;;;;;;;;5039517;28;20044;-82
2022/10/24 13:21:50;;;;;;;26.60;16.33;;;;;;;;;;5036638;28;20284;-83
2022/10/24 13:24:17;;;;;;;26.85;15.48;;;;;;;;;;5038814;28;20042;-82
2022/10/24 13:26:52;;;;;;;27.58;15.95;;;;;;;;;;5038267;28;20022;-82
2022/10/24 13:29:21;;;;;;;26.95;15.82;;;;;;;;;;5040427;28;20021;-82
2022/10/24 13:31:49;;;;;;;26.48;16.40;;;;;;;;;;5045484;28;20029;-83
2022/10/24 13:34:29;;;;;;;24.92;14.75;;;;;;;;;;5037375;28;20032;-83
2022/10/24 13:37:25;;;;;;;22.38;14.65;;;;;;;;;;5038361;28;20028;-83
2022/10/24 13:40:13;;;;;;;24.70;13.77;;;;;;;;;;4998711;28;20038;-83
2022/10/24 13:42:49;;;;;;;21.40;13.85;;;;;;;;;;4985059;28;20018;-82
2022/10/24 13:45:18;;;;;;;22.60;13.57;;;;;;;;;;4998744;28;20030;-82
2022/10/24 13:47:48;;;;;;;20.40;12.77;;;;;;;;;;4999416;28;20037;-82
2022/10/24 13:50:27;;;;;;;20.48;13.27;;;;;;;;;;4992927;28;20047;-82
2022/10/24 13:53:19;;;;;;;22.30;13.70;;;;;;;;;;4982285;28;20030;-81
2022/10/24 13:55:47;;;;;;;21.50;13.03;;;;;;;;;;4995783;28;20174;-81
2022/10/24 13:58:23;;;;;;;22.05;14.30;;;;;;;;;;4999224;28;20109;-82
2022/10/24 14:00:54;;;;;;;21.73;12.07;;;;;;;;;;4992874;28;20049;-82
2022/10/24 14:03:21;;;;;;;19.25;12.20;;;;;;;;;;4994661;28;20465;-83
2022/10/24 14:05:52;;;;;;;20.05;13.25;;;;;;;;;;4999152;28;20089;-80
2022/10/24 14:08:26;;;;;;;17.73;11.60;;;;;;;;;;4998649;28;20041;-82
2022/10/24 14:10:52;;;;;;;18.75;12.05;;;;;;;;;;4998624;28;20053;-80
2022/10/24 14:13:19;;;;;;;20.10;13.45;;;;;;;;;;4984260;28;20034;-81
2022/10/24 14:15:49;;;;;;;19.77;12.02;;;;;;;;;;4992561;28;20537;-83
2022/10/24 14:18:15;;;;;;;19.65;11.38;;;;;;;;;;5036427;28;20033;-82
2022/10/24 14:20:42;;;;;;;25.25;13.95;;;;;;;;;;5043105;28;20366;-82
2022/10/24 14:23:23;;;;;;;20.05;12.38;;;;;;;;;;5044053;28;20021;-82
2022/10/24 14:26:05;;;;;;;22.42;12.25;;;;;;;;;;5040261;28;20037;-80
2022/10/24 14:28:33;;;;;;;20.92;13.18;;;;;;;;;;5035387;28;20029;-83
2022/10/24 14:31:00;;;;;;;18.30;11.82;;;;;;;;;;5044025;28;20069;-82